sensor_id;sensor_type;location;lat;lon;timestamp;pressure;altitude;pressure_sealevel;temperature;humidity
14273;BME280;7220;49.450;11.052;2023-03-18T00:03:30;97734.69;;;8.43;58.77
14273;BME280;7220;49.450;11.052;2023-03-18T00:07:31;97729.47;;;8.42;58.73
14273;BME280;7220;49.450;11.052;2023-03-18T00:11:31;97722.88;;;8.33;59.04
14273;BME280;7220;49.450;11.052;2023-03-18T00:15:32;97723.66;;;8.35;58.38
14273;BME280;7220;49.450;11.052;2023-03-18T00:19:32;97729.97;;;8.32;59.31
14273;BME280;7220;49.450;11.052;2023-03-18T00:23:33;97726.94;;;8.23;59.53
14273;BME280;7220;49.450;11.052;2023-03-18T00:27:34;97722.66;;;8.20;59.28
14273;BME280;7220;49.450;11.052;2023-03-18T00:31:35;97726.22;;;8.19;59.05
14273;BME280;7220;49.450;11.052;2023-03-18T00:35:37;97722.66;;;8.20;59.42
14273;BME280;7220;49.450;11.052;2023-03-18T00:39:38;97734.50;;;8.13;59.30
14273;BME280;7220;49.450;11.052;2023-03-18T00:43:45;97734.81;;;8.07;59.37
14273;BME280;7220;49.450;11.052;2023-03-18T00:47:48;97741.81;;;8.08;59.32
14273;BME280;7220;49.450;11.052;2023-03-18T00:51:49;97732.41;;;8.02;59.82
14273;BME280;7220;49.450;11.052;2023-03-18T00:55:51;97730.81;;;7.98;59.73
14273;BME280;7220;49.450;11.052;2023-03-18T00:59:52;97736.97;;;7.81;60.28
14273;BME280;7220;49.450;11.052;2023-03-18T01:03:52;97726.72;;;7.74;60.68
14273;BME280;7220;49.450;11.052;2023-03-18T01:07:54;97730.91;;;7.79;60.90
14273;BME280;7220;49.450;11.052;2023-03-18T01:11:54;97735.88;;;7.67;61.11
14273;BME280;7220;49.450;11.052;2023-03-18T01:15:54;97736.03;;;7.64;60.60
14273;BME280;7220;49.450;11.052;2023-03-18T01:19:55;97726.91;;;7.52;61.08
14273;BME280;7220;49.450;11.052;2023-03-18T01:23:55;97731.13;;;7.56;61.72
14273;BME280;7220;49.450;11.052;2023-03-18T01:27:56;97735.53;;;7.56;61.10
14273;BME280;7220;49.450;11.052;2023-03-18T01:31:57;97731.00;;;7.40;61.81
14273;BME280;7220;49.450;11.052;2023-03-18T01:36:00;97739.81;;;7.41;62.42
14273;BME280;7220;49.450;11.052;2023-03-18T01:40:04;97746.94;;;7.39;62.43
14273;BME280;7220;49.450;11.052;2023-03-18T01:44:11;97743.16;;;7.45;62.21
14273;BME280;7220;49.450;11.052;2023-03-18T01:48:15;97747.34;;;7.49;62.65
14273;BME280;7220;49.450;11.052;2023-03-18T01:52:20;97747.78;;;7.39;63.06
14273;BME280;7220;49.450;11.052;2023-03-18T01:56:21;97751.31;;;7.40;64.16
14273;BME280;7220;49.450;11.052;2023-03-18T02:00:21;97753.38;;;7.33;64.40
14273;BME280;7220;49.450;11.052;2023-03-18T02:04:25;97755.22;;;7.31;63.66
14273;BME280;7220;49.450;11.052;2023-03-18T02:08:28;97759.09;;;7.24;63.98
14273;BME280;7220;49.450;11.052;2023-03-18T02:12:31;97768.13;;;7.20;65.12
14273;BME280;7220;49.450;11.052;2023-03-18T02:17:00;97762.25;;;7.13;64.23
14273;BME280;7220;49.450;11.052;2023-03-18T02:25:35;97771.97;;;7.13;64.57
14273;BME280;7220;49.450;11.052;2023-03-18T02:29:39;97770.25;;;7.12;65.05
14273;BME280;7220;49.450;11.052;2023-03-18T02:33:41;97790.31;;;7.16;64.79
14273;BME280;7220;49.450;11.052;2023-03-18T02:37:42;97786.13;;;7.12;65.57
14273;BME280;7220;49.450;11.052;2023-03-18T02:41:43;97777.97;;;7.16;65.24
14273;BME280;7220;49.450;11.052;2023-03-18T02:45:54;97784.09;;;7.17;65.29
14273;BME280;7220;49.450;11.052;2023-03-18T02:50:00;97788.59;;;7.15;64.92
14273;BME280;7220;49.450;11.052;2023-03-18T02:54:08;97776.09;;;7.18;65.01
14273;BME280;7220;49.450;11.052;2023-03-18T02:58:10;97781.53;;;7.15;65.46
14273;BME280;7220;49.450;11.052;2023-03-18T03:02:10;97785.03;;;7.16;65.45
14273;BME280;7220;49.450;11.052;2023-03-18T03:06:11;97795.88;;;7.09;66.22
14273;BME280;7220;49.450;11.052;2023-03-18T03:10:11;97793.88;;;7.15;65.46
14273;BME280;7220;49.450;11.052;2023-03-18T03:14:13;97798.53;;;7.09;65.93
14273;BME280;7220;49.450;11.052;2023-03-18T03:18:14;97797.53;;;7.12;65.75
14273;BME280;7220;49.450;11.052;2023-03-18T03:22:15;97805.38;;;7.14;66.45
14273;BME280;7220;49.450;11.052;2023-03-18T03:26:16;97804.59;;;7.12;66.28
14273;BME280;7220;49.450;11.052;2023-03-18T03:30:17;97805.88;;;7.03;67.18
14273;BME280;7220;49.450;11.052;2023-03-18T03:34:17;97812.78;;;7.05;66.81
14273;BME280;7220;49.450;11.052;2023-03-18T03:38:19;97818.88;;;7.07;67.27
14273;BME280;7220;49.450;11.052;2023-03-18T03:42:19;97820.22;;;6.97;66.95
14273;BME280;7220;49.450;11.052;2023-03-18T03:46:20;97807.44;;;6.88;68.11
14273;BME280;7220;49.450;11.052;2023-03-18T03:50:21;97810.72;;;6.93;67.43
14273;BME280;7220;49.450;11.052;2023-03-18T03:54:21;97819.56;;;6.92;67.46
14273;BME280;7220;49.450;11.052;2023-03-18T03:58:25;97825.06;;;6.87;67.30
14273;BME280;7220;49.450;11.052;2023-03-18T04:02:25;97827.13;;;6.81;68.17
14273;BME280;7220;49.450;11.052;2023-03-18T04:06:26;97821.19;;;6.75;68.34
14273;BME280;7220;49.450;11.052;2023-03-18T04:10:27;97836.97;;;6.77;68.01
14273;BME280;7220;49.450;11.052;2023-03-18T04:14:27;97831.03;;;6.72;68.27
14273;BME280;7220;49.450;11.052;2023-03-18T04:18:28;97837.69;;;6.81;68.65
14273;BME280;7220;49.450;11.052;2023-03-18T04:22:28;97818.75;;;6.71;68.11
14273;BME280;7220;49.450;11.052;2023-03-18T04:26:30;97838.66;;;6.78;68.23
14273;BME280;7220;49.450;11.052;2023-03-18T04:30:30;97831.47;;;6.82;68.44
14273;BME280;7220;49.450;11.052;2023-03-18T04:34:31;97822.78;;;6.79;69.04
14273;BME280;7220;49.450;11.052;2023-03-18T04:38:31;97828.78;;;6.83;69.27
14273;BME280;7220;49.450;11.052;2023-03-18T04:42:32;97816.97;;;6.71;69.38
14273;BME280;7220;49.450;11.052;2023-03-18T04:46:32;97817.09;;;6.68;69.91
14273;BME280;7220;49.450;11.052;2023-03-18T04:50:33;97828.13;;;6.57;69.96
14273;BME280;7220;49.450;11.052;2023-03-18T04:54:33;97809.97;;;6.50;70.25
14273;BME280;7220;49.450;11.052;2023-03-18T04:58:33;97840.50;;;6.57;69.99
14273;BME280;7220;49.450;11.052;2023-03-18T05:02:34;97818.84;;;6.49;70.45
14273;BME280;7220;49.450;11.052;2023-03-18T05:06:35;97830.06;;;6.54;70.84
14273;BME280;7220;49.450;11.052;2023-03-18T05:10:36;97829.44;;;6.47;71.20
14273;BME280;7220;49.450;11.052;2023-03-18T05:14:37;97843.44;;;6.49;71.62
14273;BME280;7220;49.450;11.052;2023-03-18T05:18:38;97850.63;;;6.45;71.96
14273;BME280;7220;49.450;11.052;2023-03-18T05:22:40;97831.94;;;6.29;72.89
14273;BME280;7220;49.450;11.052;2023-03-18T05:26:40;97845.47;;;6.42;72.07
14273;BME280;7220;49.450;11.052;2023-03-18T05:30:40;97837.03;;;6.34;72.87
14273;BME280;7220;49.450;11.052;2023-03-18T05:34:42;97836.25;;;6.32;73.37
14273;BME280;7220;49.450;11.052;2023-03-18T05:38:42;97843.63;;;6.44;72.34
14273;BME280;7220;49.450;11.052;2023-03-18T05:42:42;97840.47;;;6.36;73.30
14273;BME280;7220;49.450;11.052;2023-03-18T05:46:44;97841.47;;;6.34;73.33
14273;BME280;7220;49.450;11.052;2023-03-18T05:50:45;97848.38;;;6.36;73.41
14273;BME280;7220;49.450;11.052;2023-03-18T05:54:45;97848.25;;;6.39;73.73
14273;BME280;7220;49.450;11.052;2023-03-18T05:58:46;97845.09;;;6.31;73.59
14273;BME280;7220;49.450;11.052;2023-03-18T06:02:47;97848.25;;;6.39;73.84
14273;BME280;7220;49.450;11.052;2023-03-18T06:06:47;97837.81;;;6.36;73.56
14273;BME280;7220;49.450;11.052;2023-03-18T06:10:48;97849.84;;;6.43;74.14
14273;BME280;7220;49.450;11.052;2023-03-18T06:14:48;97841.00;;;6.44;73.77
14273;BME280;7220;49.450;11.052;2023-03-18T06:18:49;97852.69;;;6.59;73.36
14273;BME280;7220;49.450;11.052;2023-03-18T06:22:50;97850.81;;;6.61;73.73
14273;BME280;7220;49.450;11.052;2023-03-18T06:26:53;97859.34;;;6.68;73.04
14273;BME280;7220;49.450;11.052;2023-03-18T06:30:55;97853.16;;;6.69;73.23
14273;BME280;7220;49.450;11.052;2023-03-18T06:34:56;97859.28;;;6.70;73.46
14273;BME280;7220;49.450;11.052;2023-03-18T06:38:56;97855.66;;;6.72;73.16
14273;BME280;7220;49.450;11.052;2023-03-18T06:42:58;97849.03;;;6.83;73.43
14273;BME280;7220;49.450;11.052;2023-03-18T06:46:58;97869.16;;;6.85;73.13
14273;BME280;7220;49.450;11.052;2023-03-18T06:50:58;97867.72;;;6.78;73.00
14273;BME280;7220;49.450;11.052;2023-03-18T06:54:59;97875.84;;;6.73;72.90
14273;BME280;7220;49.450;11.052;2023-03-18T06:58:59;97867.53;;;6.83;72.63
14273;BME280;7220;49.450;11.052;2023-03-18T07:02:59;97870.16;;;6.83;73.07
14273;BME280;7220;49.450;11.052;2023-03-18T07:07:00;97875.44;;;6.83;72.21
14273;BME280;7220;49.450;11.052;2023-03-18T07:11:01;97887.59;;;6.87;73.38
14273;BME280;7220;49.450;11.052;2023-03-18T07:15:02;97890.63;;;6.98;72.18
14273;BME280;7220;49.450;11.052;2023-03-18T07:19:03;97887.28;;;7.14;72.06
14273;BME280;7220;49.450;11.052;2023-03-18T07:23:03;97888.97;;;7.16;72.22
14273;BME280;7220;49.450;11.052;2023-03-18T07:27:04;97887.97;;;7.19;71.69
14273;BME280;7220;49.450;11.052;2023-03-18T07:31:06;97898.25;;;7.25;72.21
14273;BME280;7220;49.450;11.052;2023-03-18T07:35:07;97897.97;;;7.31;72.47
14273;BME280;7220;49.450;11.052;2023-03-18T07:39:09;97902.00;;;7.40;71.46
14273;BME280;7220;49.450;11.052;2023-03-18T07:43:10;97908.56;;;7.50;72.10
14273;BME280;7220;49.450;11.052;2023-03-18T07:47:10;97898.84;;;7.51;72.73
14273;BME280;7220;49.450;11.052;2023-03-18T07:51:11;97912.41;;;7.62;72.12
14273;BME280;7220;49.450;11.052;2023-03-18T07:55:11;97918.59;;;7.63;72.84
14273;BME280;7220;49.450;11.052;2023-03-18T07:59:11;97916.28;;;7.74;72.87
14273;BME280;7220;49.450;11.052;2023-03-18T08:03:12;97920.84;;;7.70;72.49
14273;BME280;7220;49.450;11.052;2023-03-18T08:07:13;97916.56;;;7.87;73.36
14273;BME280;7220;49.450;11.052;2023-03-18T08:11:13;97919.16;;;7.88;73.20
14273;BME280;7220;49.450;11.052;2023-03-18T08:15:13;97910.53;;;8.02;72.49
14273;BME280;7220;49.450;11.052;2023-03-18T08:19:14;97911.00;;;7.93;73.82
14273;BME280;7220;49.450;11.052;2023-03-18T08:23:15;97930.00;;;8.20;73.15
14273;BME280;7220;49.450;11.052;2023-03-18T08:27:15;97920.59;;;8.32;72.64
14273;BME280;7220;49.450;11.052;2023-03-18T08:31:15;97928.22;;;8.39;72.53
14273;BME280;7220;49.450;11.052;2023-03-18T08:35:16;97931.88;;;8.55;71.74
14273;BME280;7220;49.450;11.052;2023-03-18T08:39:17;97925.78;;;8.53;72.29
14273;BME280;7220;49.450;11.052;2023-03-18T08:43:17;97936.78;;;8.80;71.88
14273;BME280;7220;49.450;11.052;2023-03-18T08:47:19;97926.09;;;8.82;71.62
14273;BME280;7220;49.450;11.052;2023-03-18T08:51:20;97922.84;;;8.94;71.52
14273;BME280;7220;49.450;11.052;2023-03-18T08:55:25;97922.13;;;9.08;70.72
14273;BME280;7220;49.450;11.052;2023-03-18T08:59:26;97921.94;;;9.11;70.78
14273;BME280;7220;49.450;11.052;2023-03-18T09:03:27;97927.91;;;9.32;70.01
14273;BME280;7220;49.450;11.052;2023-03-18T09:07:27;97934.59;;;9.40;70.55
14273;BME280;7220;49.450;11.052;2023-03-18T09:11:28;97928.91;;;9.63;69.02
14273;BME280;7220;49.450;11.052;2023-03-18T09:15:28;97920.72;;;9.68;69.22
14273;BME280;7220;49.450;11.052;2023-03-18T09:19:28;97890.41;;;9.88;68.69
14273;BME280;7220;49.450;11.052;2023-03-18T09:23:29;97911.31;;;10.10;67.68
14273;BME280;7220;49.450;11.052;2023-03-18T09:27:30;97896.50;;;10.22;67.30
14273;BME280;7220;49.450;11.052;2023-03-18T09:31:31;97905.13;;;10.42;66.54
14273;BME280;7220;49.450;11.052;2023-03-18T09:35:32;97903.75;;;10.51;65.94
14273;BME280;7220;49.450;11.052;2023-03-18T09:39:32;97891.44;;;10.64;65.05
14273;BME280;7220;49.450;11.052;2023-03-18T09:43:58;97902.44;;;10.88;64.70
14273;BME280;7220;49.450;11.052;2023-03-18T09:52:36;97908.41;;;11.37;62.43
14273;BME280;7220;49.450;11.052;2023-03-18T09:56:38;97899.25;;;11.41;62.09
14273;BME280;7220;49.450;11.052;2023-03-18T10:00:40;97915.97;;;11.58;61.19
14273;BME280;7220;49.450;11.052;2023-03-18T10:04:45;97907.81;;;11.75;59.79
14273;BME280;7220;49.450;11.052;2023-03-18T10:13:04;97903.56;;;12.14;58.90
14273;BME280;7220;49.450;11.052;2023-03-18T10:17:57;97916.84;;;12.29;57.26
14273;BME280;7220;49.450;11.052;2023-03-18T10:21:46;97917.41;;;12.61;55.86
14273;BME280;7220;49.450;11.052;2023-03-18T10:25:51;97901.22;;;12.77;55.44
14273;BME280;7220;49.450;11.052;2023-03-18T10:29:56;97901.53;;;12.86;54.36
14273;BME280;7220;49.450;11.052;2023-03-18T10:34:07;97891.84;;;12.98;53.38
14273;BME280;7220;49.450;11.052;2023-03-18T10:38:23;97898.69;;;13.15;52.17
14273;BME280;7220;49.450;11.052;2023-03-18T10:42:27;97877.44;;;13.26;51.20
14273;BME280;7220;49.450;11.052;2023-03-18T10:46:30;97879.91;;;13.42;50.37
14273;BME280;7220;49.450;11.052;2023-03-18T10:50:39;97879.69;;;13.58;50.24
14273;BME280;7220;49.450;11.052;2023-03-18T10:54:43;97878.16;;;13.80;49.03
14273;BME280;7220;49.450;11.052;2023-03-18T10:58:51;97856.38;;;13.86;48.51
14273;BME280;7220;49.450;11.052;2023-03-18T11:02:54;97873.03;;;14.14;48.20
14273;BME280;7220;49.450;11.052;2023-03-18T11:07:02;97867.28;;;14.31;47.39
14273;BME280;7220;49.450;11.052;2023-03-18T11:11:29;97860.09;;;14.56;46.22
14273;BME280;7220;49.450;11.052;2023-03-18T11:15:43;97857.81;;;14.63;45.96
14273;BME280;7220;49.450;11.052;2023-03-18T11:19:47;97851.72;;;14.85;45.88
14273;BME280;7220;49.450;11.052;2023-03-18T11:23:59;97853.97;;;15.14;44.89
14273;BME280;7220;49.450;11.052;2023-03-18T11:28:22;97867.09;;;15.17;45.28
14273;BME280;7220;49.450;11.052;2023-03-18T11:32:32;97858.97;;;15.30;44.04
14273;BME280;7220;49.450;11.052;2023-03-18T11:36:33;97848.50;;;15.72;43.82
14273;BME280;7220;49.450;11.052;2023-03-18T11:40:33;97840.63;;;17.32;41.93
14273;BME280;7220;49.450;11.052;2023-03-18T11:44:33;97836.44;;;18.50;39.14
14273;BME280;7220;49.450;11.052;2023-03-18T11:48:35;97823.03;;;19.55;37.13
14273;BME280;7220;49.450;11.052;2023-03-18T11:52:50;97826.25;;;20.42;35.89
14273;BME280;7220;49.450;11.052;2023-03-18T11:57:10;97819.72;;;21.07;35.56
14273;BME280;7220;49.450;11.052;2023-03-18T12:09:38;97798.47;;;22.99;31.78
14273;BME280;7220;49.450;11.052;2023-03-18T12:26:54;97781.91;;;23.98;29.06
14273;BME280;7220;49.450;11.052;2023-03-18T12:35:28;97761.00;;;24.53;28.71
14273;BME280;7220;49.450;11.052;2023-03-18T12:48:21;97768.53;;;24.20;28.43
14273;BME280;7220;49.450;11.052;2023-03-18T12:53:10;97766.13;;;24.25;28.03
14273;BME280;7220;49.450;11.052;2023-03-18T12:56:55;97768.78;;;24.33;28.70
14273;BME280;7220;49.450;11.052;2023-03-18T13:01:00;97768.06;;;24.63;27.79
14273;BME280;7220;49.450;11.052;2023-03-18T13:05:23;97763.94;;;24.90;27.86
14273;BME280;7220;49.450;11.052;2023-03-18T13:09:46;97768.38;;;25.51;27.23
14273;BME280;7220;49.450;11.052;2023-03-18T13:13:51;97762.06;;;25.65;26.53
14273;BME280;7220;49.450;11.052;2023-03-18T13:17:56;97755.97;;;25.78;26.23
14273;BME280;7220;49.450;11.052;2023-03-18T13:26:35;97750.81;;;25.69;26.56
14273;BME280;7220;49.450;11.052;2023-03-18T13:39:50;97747.88;;;26.87;24.55
14273;BME280;7220;49.450;11.052;2023-03-18T13:43:59;97741.31;;;27.10;24.38
14273;BME280;7220;49.450;11.052;2023-03-18T13:48:12;97733.19;;;27.51;24.27
14273;BME280;7220;49.450;11.052;2023-03-18T13:52:39;97731.00;;;27.89;23.48
14273;BME280;7220;49.450;11.052;2023-03-18T14:01:11;97717.03;;;27.57;24.04
14273;BME280;7220;49.450;11.052;2023-03-18T14:09:35;97721.13;;;27.81;22.58
14273;BME280;7220;49.450;11.052;2023-03-18T14:13:53;97711.38;;;26.38;24.08
14273;BME280;7220;49.450;11.052;2023-03-18T14:17:57;97712.28;;;25.20;25.02
14273;BME280;7220;49.450;11.052;2023-03-18T14:22:07;97720.50;;;24.44;25.34
14273;BME280;7220;49.450;11.052;2023-03-18T14:26:23;97716.91;;;24.05;25.78
14273;BME280;7220;49.450;11.052;2023-03-18T14:34:52;97718.16;;;23.14;28.05
14273;BME280;7220;49.450;11.052;2023-03-18T14:39:00;97709.78;;;22.68;27.71
14273;BME280;7220;49.450;11.052;2023-03-18T14:43:08;97703.00;;;22.31;28.05
14273;BME280;7220;49.450;11.052;2023-03-18T14:47:19;97712.50;;;22.18;28.75
14273;BME280;7220;49.450;11.052;2023-03-18T14:51:20;97713.78;;;21.81;29.43
14273;BME280;7220;49.450;11.052;2023-03-18T14:55:27;97702.31;;;21.36;29.49
14273;BME280;7220;49.450;11.052;2023-03-18T14:59:30;97706.75;;;21.11;30.06
14273;BME280;7220;49.450;11.052;2023-03-18T15:03:31;97700.84;;;21.07;30.31
14273;BME280;7220;49.450;11.052;2023-03-18T15:07:37;97700.75;;;20.91;30.46
14273;BME280;7220;49.450;11.052;2023-03-18T15:11:41;97705.22;;;20.56;30.34
14273;BME280;7220;49.450;11.052;2023-03-18T15:15:42;97706.72;;;20.50;30.69
14273;BME280;7220;49.450;11.052;2023-03-18T15:19:43;97707.25;;;20.36;30.60
14273;BME280;7220;49.450;11.052;2023-03-18T15:23:49;97700.50;;;20.31;31.26
14273;BME280;7220;49.450;11.052;2023-03-18T15:27:52;97707.59;;;20.32;31.19
14273;BME280;7220;49.450;11.052;2023-03-18T15:36:15;97686.00;;;20.77;31.04
14273;BME280;7220;49.450;11.052;2023-03-18T15:44:36;97677.63;;;20.44;31.83
14273;BME280;7220;49.450;11.052;2023-03-18T15:48:49;97700.13;;;20.26;32.29
14273;BME280;7220;49.450;11.052;2023-03-18T15:53:16;97707.75;;;20.13;32.63
14273;BME280;7220;49.450;11.052;2023-03-18T15:57:38;97700.06;;;20.18;32.41
14273;BME280;7220;49.450;11.052;2023-03-18T16:01:38;97695.59;;;20.09;32.54
14273;BME280;7220;49.450;11.052;2023-03-18T16:05:39;97690.69;;;19.86;32.88
14273;BME280;7220;49.450;11.052;2023-03-18T16:09:39;97683.00;;;19.63;32.98
14273;BME280;7220;49.450;11.052;2023-03-18T16:13:40;97676.13;;;19.33;34.09
14273;BME280;7220;49.450;11.052;2023-03-18T16:17:42;97687.13;;;19.12;34.32
14273;BME280;7220;49.450;11.052;2023-03-18T16:21:44;97685.78;;;18.98;35.20
14273;BME280;7220;49.450;11.052;2023-03-18T16:25:50;97696.84;;;18.85;35.14
14273;BME280;7220;49.450;11.052;2023-03-18T16:29:51;97705.13;;;18.64;35.86
14273;BME280;7220;49.450;11.052;2023-03-18T16:33:51;97702.19;;;18.47;36.62
14273;BME280;7220;49.450;11.052;2023-03-18T16:37:52;97707.19;;;18.32;36.78
14273;BME280;7220;49.450;11.052;2023-03-18T16:41:53;97705.38;;;18.13;36.97
14273;BME280;7220;49.450;11.052;2023-03-18T16:45:58;97716.78;;;17.86;37.75
14273;BME280;7220;49.450;11.052;2023-03-18T16:49:59;97716.59;;;17.67;37.78
14273;BME280;7220;49.450;11.052;2023-03-18T16:53:59;97717.47;;;17.58;38.78
14273;BME280;7220;49.450;11.052;2023-03-18T16:58:00;97726.03;;;17.42;38.78
14273;BME280;7220;49.450;11.052;2023-03-18T17:02:02;97725.97;;;17.23;38.63
14273;BME280;7220;49.450;11.052;2023-03-18T17:06:03;97722.69;;;17.09;39.04
14273;BME280;7220;49.450;11.052;2023-03-18T17:10:05;97714.03;;;16.96;39.01
14273;BME280;7220;49.450;11.052;2023-03-18T17:14:27;97717.88;;;16.82;40.02
14273;BME280;7220;49.450;11.052;2023-03-18T17:18:29;97728.28;;;16.75;40.30
14273;BME280;7220;49.450;11.052;2023-03-18T17:22:31;97734.47;;;16.66;40.00
14273;BME280;7220;49.450;11.052;2023-03-18T17:26:32;97735.78;;;16.50;40.37
14273;BME280;7220;49.450;11.052;2023-03-18T17:30:36;97738.66;;;16.37;41.10
14273;BME280;7220;49.450;11.052;2023-03-18T17:34:37;97738.13;;;16.22;41.13
14273;BME280;7220;49.450;11.052;2023-03-18T17:38:37;97748.00;;;16.22;41.27
14273;BME280;7220;49.450;11.052;2023-03-18T17:42:38;97752.56;;;16.10;41.78
14273;BME280;7220;49.450;11.052;2023-03-18T17:46:39;97742.47;;;16.02;41.36
14273;BME280;7220;49.450;11.052;2023-03-18T17:50:41;97753.63;;;15.86;42.09
14273;BME280;7220;49.450;11.052;2023-03-18T17:54:42;97751.19;;;15.72;43.12
14273;BME280;7220;49.450;11.052;2023-03-18T17:58:44;97739.28;;;15.65;44.60
14273;BME280;7220;49.450;11.052;2023-03-18T18:02:45;97745.13;;;15.58;43.76
14273;BME280;7220;49.450;11.052;2023-03-18T18:06:46;97736.50;;;15.55;43.79
14273;BME280;7220;49.450;11.052;2023-03-18T18:10:47;97746.25;;;15.44;43.81
14273;BME280;7220;49.450;11.052;2023-03-18T18:14:48;97754.91;;;15.37;44.84
14273;BME280;7220;49.450;11.052;2023-03-18T18:18:49;97740.78;;;15.35;44.83
14273;BME280;7220;49.450;11.052;2023-03-18T18:22:52;97744.34;;;15.24;44.66
14273;BME280;7220;49.450;11.052;2023-03-18T18:26:53;97753.94;;;15.15;44.69
14273;BME280;7220;49.450;11.052;2023-03-18T18:30:54;97751.91;;;15.07;44.70
14273;BME280;7220;49.450;11.052;2023-03-18T18:34:54;97750.53;;;15.02;45.40
14273;BME280;7220;49.450;11.052;2023-03-18T18:38:54;97759.28;;;14.92;45.65
14273;BME280;7220;49.450;11.052;2023-03-18T18:42:55;97756.50;;;14.82;45.89
14273;BME280;7220;49.450;11.052;2023-03-18T18:46:55;97752.97;;;14.82;46.21
14273;BME280;7220;49.450;11.052;2023-03-18T18:50:57;97751.72;;;14.75;47.19
14273;BME280;7220;49.450;11.052;2023-03-18T18:54:58;97754.66;;;14.72;47.12
14273;BME280;7220;49.450;11.052;2023-03-18T18:59:00;97752.13;;;14.70;47.16
14273;BME280;7220;49.450;11.052;2023-03-18T19:03:01;97757.34;;;14.72;47.97
14273;BME280;7220;49.450;11.052;2023-03-18T19:07:04;97755.63;;;14.71;48.53
14273;BME280;7220;49.450;11.052;2023-03-18T19:11:05;97748.66;;;14.57;48.76
14273;BME280;7220;49.450;11.052;2023-03-18T19:15:07;97753.38;;;14.53;48.98
14273;BME280;7220;49.450;11.052;2023-03-18T19:19:27;97755.56;;;14.48;48.71
14273;BME280;7220;49.450;11.052;2023-03-18T19:23:29;97765.03;;;14.41;48.94
14273;BME280;7220;49.450;11.052;2023-03-18T19:27:32;97758.19;;;14.36;49.76
14273;BME280;7220;49.450;11.052;2023-03-18T19:31:33;97758.19;;;14.36;49.52
14273;BME280;7220;49.450;11.052;2023-03-18T19:35:34;97754.50;;;14.26;50.55
14273;BME280;7220;49.450;11.052;2023-03-18T19:39:35;97766.41;;;14.22;50.57
14273;BME280;7220;49.450;11.052;2023-03-18T19:43:35;97759.84;;;14.15;50.70
14273;BME280;7220;49.450;11.052;2023-03-18T19:47:39;97759.22;;;14.11;51.42
14273;BME280;7220;49.450;11.052;2023-03-18T19:51:41;97770.25;;;14.07;52.28
14273;BME280;7220;49.450;11.052;2023-03-18T19:55:42;97771.22;;;14.06;51.96
14273;BME280;7220;49.450;11.052;2023-03-18T19:59:44;97768.25;;;13.97;51.74
14273;BME280;7220;49.450;11.052;2023-03-18T20:03:46;97773.56;;;13.86;52.44
14273;BME280;7220;49.450;11.052;2023-03-18T20:07:46;97785.13;;;13.73;52.94
14273;BME280;7220;49.450;11.052;2023-03-18T20:11:50;97777.75;;;13.53;53.17
14273;BME280;7220;49.450;11.052;2023-03-18T20:15:52;97788.19;;;13.56;53.73
14273;BME280;7220;49.450;11.052;2023-03-18T20:19:53;97802.19;;;13.47;53.61
14273;BME280;7220;49.450;11.052;2023-03-18T20:23:57;97786.19;;;13.34;54.19
14273;BME280;7220;49.450;11.052;2023-03-18T20:28:05;97800.50;;;13.33;54.15
14273;BME280;7220;49.450;11.052;2023-03-18T20:32:06;97789.50;;;13.24;54.47
14273;BME280;7220;49.450;11.052;2023-03-18T20:36:14;97799.56;;;13.21;55.11
14273;BME280;7220;49.450;11.052;2023-03-18T20:40:21;97796.03;;;13.07;55.77
14273;BME280;7220;49.450;11.052;2023-03-18T20:44:22;97806.50;;;12.98;56.42
14273;BME280;7220;49.450;11.052;2023-03-18T20:48:23;97803.72;;;12.99;56.05
14273;BME280;7220;49.450;11.052;2023-03-18T20:52:28;97812.25;;;12.91;56.83
14273;BME280;7220;49.450;11.052;2023-03-18T20:56:28;97805.66;;;12.84;56.51
14273;BME280;7220;49.450;11.052;2023-03-18T21:00:31;97805.84;;;12.81;56.66
14273;BME280;7220;49.450;11.052;2023-03-18T21:04:32;97813.22;;;12.77;57.18
14273;BME280;7220;49.450;11.052;2023-03-18T21:08:32;97805.00;;;12.68;57.64
14273;BME280;7220;49.450;11.052;2023-03-18T21:12:34;97817.25;;;12.57;58.67
14273;BME280;7220;49.450;11.052;2023-03-18T21:16:35;97801.13;;;12.59;58.92
14273;BME280;7220;49.450;11.052;2023-03-18T21:20:36;97805.75;;;12.57;57.80
14273;BME280;7220;49.450;11.052;2023-03-18T21:24:36;97794.63;;;12.50;58.30
14273;BME280;7220;49.450;11.052;2023-03-18T21:28:38;97797.72;;;12.44;59.04
14273;BME280;7220;49.450;11.052;2023-03-18T21:32:38;97808.13;;;12.34;58.93
14273;BME280;7220;49.450;11.052;2023-03-18T21:36:40;97803.44;;;12.25;60.20
14273;BME280;7220;49.450;11.052;2023-03-18T21:40:40;97808.34;;;12.31;59.51
14273;BME280;7220;49.450;11.052;2023-03-18T21:44:40;97806.63;;;12.30;60.50
14273;BME280;7220;49.450;11.052;2023-03-18T21:48:40;97815.78;;;12.13;60.58
14273;BME280;7220;49.450;11.052;2023-03-18T21:52:41;97816.91;;;12.09;60.93
14273;BME280;7220;49.450;11.052;2023-03-18T21:56:41;97812.28;;;11.98;62.56
14273;BME280;7220;49.450;11.052;2023-03-18T22:00:43;97810.66;;;11.95;62.26
14273;BME280;7220;49.450;11.052;2023-03-18T22:04:43;97811.16;;;11.88;62.58
14273;BME280;7220;49.450;11.052;2023-03-18T22:08:44;97806.22;;;11.81;63.78
14273;BME280;7220;49.450;11.052;2023-03-18T22:12:45;97806.72;;;11.74;63.37
14273;BME280;7220;49.450;11.052;2023-03-18T22:16:45;97813.88;;;11.73;63.21
14273;BME280;7220;49.450;11.052;2023-03-18T22:20:47;97817.69;;;11.69;63.14
14273;BME280;7220;49.450;11.052;2023-03-18T22:24:49;97802.09;;;11.63;63.96
14273;BME280;7220;49.450;11.052;2023-03-18T22:28:50;97802.19;;;11.61;64.01
14273;BME280;7220;49.450;11.052;2023-03-18T22:32:50;97814.09;;;11.56;63.87
14273;BME280;7220;49.450;11.052;2023-03-18T22:36:51;97805.84;;;11.46;64.70
14273;BME280;7220;49.450;11.052;2023-03-18T22:40:54;97824.38;;;11.47;63.90
14273;BME280;7220;49.450;11.052;2023-03-18T22:44:55;97824.00;;;11.39;65.33
14273;BME280;7220;49.450;11.052;2023-03-18T22:48:55;97816.59;;;11.30;64.99
14273;BME280;7220;49.450;11.052;2023-03-18T22:53:05;97822.31;;;11.24;65.76
14273;BME280;7220;49.450;11.052;2023-03-18T22:57:12;97838.47;;;11.20;65.33
14273;BME280;7220;49.450;11.052;2023-03-18T23:01:14;97842.06;;;11.19;66.76